createdAt,value
2022-12-05T00:00:45.123Z,19.40
2022-12-05T00:02:18.768Z,22.20
2022-12-05T00:03:52.375Z,21.23
2022-12-05T00:05:25.799Z,21.63
2022-12-05T00:06:59.165Z,21.10
2022-12-05T00:08:33.906Z,21.47
2022-12-05T00:10:08.278Z,20.03
2022-12-05T00:11:42.873Z,21.70
2022-12-05T00:13:16.311Z,21.20
2022-12-05T00:14:49.741Z,21.63
2022-12-05T00:16:24.611Z,21.33
2022-12-05T00:17:58.034Z,21.80
2022-12-05T00:19:31.555Z,19.03
2022-12-05T00:21:04.361Z,22.47
2022-12-05T00:22:38.186Z,23.50
2022-12-05T00:24:15.189Z,21.20
2022-12-05T00:25:47.540Z,22.80
2022-12-05T00:27:20.922Z,23.90
2022-12-05T00:28:53.349Z,21.37
2022-12-05T00:30:26.740Z,24.73
2022-12-05T00:32:00.172Z,21.00
2022-12-05T00:33:33.900Z,21.53
2022-12-05T00:35:07.608Z,21.07
2022-12-05T00:36:41.665Z,20.83
2022-12-05T00:38:15.040Z,20.33
2022-12-05T00:39:49.808Z,23.70
2022-12-05T00:41:23.879Z,21.73
2022-12-05T00:42:57.259Z,22.10
2022-12-05T00:44:29.603Z,20.40
2022-12-05T00:46:03.718Z,23.67
2022-12-05T00:47:37.455Z,20.40
2022-12-05T00:49:12.527Z,21.50
2022-12-05T00:50:44.862Z,21.53
2022-12-05T00:52:18.476Z,23.27
2022-12-05T00:53:51.134Z,22.53
2022-12-05T00:55:25.858Z,22.67
2022-12-05T00:56:59.259Z,19.20
2022-12-05T00:58:31.725Z,22.70
2022-12-05T01:00:06.603Z,24.40
2022-12-05T01:01:41.189Z,24.30
2022-12-05T01:03:13.672Z,22.80
2022-12-05T01:04:47.133Z,24.87
2022-12-05T01:06:19.760Z,20.60
2022-12-05T01:07:53.119Z,23.60
2022-12-05T01:09:26.867Z,23.40
2022-12-05T01:11:00.828Z,21.23
2022-12-05T01:12:34.243Z,23.77
2022-12-05T01:14:07.728Z,22.80
2022-12-05T01:15:40.083Z,23.27
2022-12-05T01:17:13.513Z,22.70
2022-12-05T01:18:46.878Z,22.47
2022-12-05T01:20:20.263Z,25.27
2022-12-05T01:21:54.068Z,24.13
2022-12-05T01:23:27.399Z,24.40
2022-12-05T01:25:00.805Z,23.87
2022-12-05T01:26:35.507Z,25.13
2022-12-05T01:28:08.171Z,23.07
2022-12-05T01:29:41.508Z,23.23
2022-12-05T01:31:17.805Z,22.33
2022-12-05T01:32:51.240Z,21.93
2022-12-05T01:34:25.296Z,21.83
2022-12-05T01:35:58.698Z,24.00
2022-12-05T01:37:32.081Z,23.70
2022-12-05T01:39:05.505Z,23.07
2022-12-05T01:40:37.944Z,23.00
2022-12-05T01:42:14.243Z,22.87
2022-12-05T01:44:02.067Z,25.07
2022-12-05T01:45:36.409Z,21.97
2022-12-05T01:47:09.962Z,23.83
2022-12-05T01:48:43.369Z,23.87
2022-12-05T01:50:16.775Z,21.83
2022-12-05T01:51:51.223Z,22.27
2022-12-05T01:53:24.768Z,23.33
2022-12-05T01:55:00.773Z,23.43
2022-12-05T01:56:34.685Z,21.07
2022-12-05T01:58:10.372Z,22.63
2022-12-05T01:59:53.787Z,20.97
2022-12-05T02:01:27.215Z,23.00
2022-12-05T02:03:01.378Z,22.20
2022-12-05T02:04:36.607Z,23.90
2022-12-05T02:06:11.082Z,22.23
2022-12-05T02:07:44.668Z,22.10
2022-12-05T02:09:18.070Z,23.60
2022-12-05T02:10:53.253Z,21.13
2022-12-05T02:12:26.745Z,19.23
2022-12-05T02:14:11.462Z,23.10
2022-12-05T02:15:48.303Z,21.27
2022-12-05T02:17:25.678Z,22.17
2022-12-05T02:19:06.045Z,19.67
2022-12-05T02:20:44.361Z,22.27
2022-12-05T02:22:35.542Z,18.50
2022-12-05T02:24:20.349Z,20.83
2022-12-05T02:26:06.234Z,19.73
2022-12-05T02:27:45.591Z,22.47
2022-12-05T02:29:33.841Z,19.90
2022-12-05T02:31:10.607Z,19.47
2022-12-05T02:32:54.942Z,20.77
2022-12-05T02:34:31.352Z,22.13
2022-12-05T02:36:06.767Z,19.93
2022-12-05T02:37:44.020Z,21.10
2022-12-05T02:39:18.431Z,20.43
2022-12-05T02:40:53.680Z,21.50
2022-12-05T02:42:30.310Z,20.83
2022-12-05T02:44:06.343Z,19.40
2022-12-05T02:45:39.712Z,21.97
2022-12-05T02:47:16.545Z,21.40
2022-12-05T02:48:51.497Z,22.30
2022-12-05T02:50:26.103Z,20.30
2022-12-05T02:52:00.776Z,19.67
2022-12-05T02:53:34.701Z,21.03
2022-12-05T02:55:09.270Z,19.37
2022-12-05T02:56:42.965Z,19.47
2022-12-05T02:58:18.911Z,19.13
2022-12-05T02:59:51.446Z,20.40
2022-12-05T03:01:27.209Z,18.73
2022-12-05T03:03:02.522Z,21.73
2022-12-05T03:04:35.928Z,18.70
2022-12-05T03:06:13.256Z,18.00
2022-12-05T03:07:47.501Z,19.93
2022-12-05T03:09:23.098Z,17.53
2022-12-05T03:10:56.043Z,18.43
2022-12-05T03:12:32.045Z,17.17
2022-12-05T03:14:07.393Z,19.00
2022-12-05T03:15:43.460Z,16.77
2022-12-05T03:17:19.439Z,17.33
2022-12-05T03:18:56.971Z,17.50
2022-12-05T03:20:30.144Z,18.23
2022-12-05T03:22:04.892Z,16.73
2022-12-05T03:23:40.114Z,17.13
2022-12-05T03:25:14.114Z,18.87
2022-12-05T03:26:52.485Z,16.83
2022-12-05T03:28:25.723Z,17.27
2022-12-05T03:30:02.059Z,18.13
2022-12-05T03:31:39.925Z,16.03
2022-12-05T03:33:15.892Z,19.90
2022-12-05T03:34:53.396Z,17.03
2022-12-05T03:36:30.245Z,17.90
2022-12-05T03:38:07.490Z,19.33
2022-12-05T03:39:45.545Z,16.30
2022-12-05T03:41:21.812Z,17.10
2022-12-05T03:42:56.581Z,15.10
2022-12-05T03:44:33.372Z,16.93
2022-12-05T03:46:08.594Z,16.47
2022-12-05T03:47:47.730Z,17.23
2022-12-05T03:49:23.485Z,14.90
2022-12-05T03:50:59.511Z,17.50
2022-12-05T03:52:51.074Z,16.57
2022-12-05T03:54:29.403Z,17.33
2022-12-05T03:56:05.362Z,16.37
2022-12-05T03:57:43.829Z,14.97
2022-12-05T03:59:20.687Z,17.30
2022-12-05T04:00:55.549Z,15.30
2022-12-05T04:02:32.557Z,14.53
2022-12-05T04:04:09.868Z,18.53
2022-12-05T04:05:45.095Z,18.17
2022-12-05T04:07:20.503Z,17.10
2022-12-05T04:08:55.621Z,17.13
2022-12-05T04:10:30.963Z,18.37
2022-12-05T04:12:06.281Z,16.67
2022-12-05T04:13:40.888Z,16.73
2022-12-05T04:15:16.133Z,16.20
2022-12-05T04:17:05.753Z,16.03
2022-12-05T04:18:40.788Z,17.87
2022-12-05T04:20:33.551Z,15.70
2022-12-05T04:22:06.907Z,15.67
2022-12-05T04:23:44.853Z,16.93
2022-12-05T04:25:36.351Z,15.90
2022-12-05T04:27:17.283Z,15.70
2022-12-05T04:28:52.808Z,15.70
2022-12-05T04:30:27.285Z,17.13
2022-12-05T04:32:03.931Z,17.47
2022-12-05T04:33:42.230Z,14.80
2022-12-05T04:35:17.315Z,15.10
2022-12-05T04:36:52.682Z,15.03
2022-12-05T04:38:28.419Z,16.20
2022-12-05T04:40:05.784Z,15.57
2022-12-05T04:41:40.401Z,15.80
2022-12-05T04:43:14.902Z,16.70
2022-12-05T04:44:51.434Z,15.37
2022-12-05T04:46:26.206Z,16.03
2022-12-05T04:48:02.412Z,14.73
2022-12-05T04:49:37.105Z,14.97
2022-12-05T04:51:11.586Z,16.27
2022-12-05T04:52:48.555Z,15.73
2022-12-05T04:54:23.109Z,14.50
2022-12-05T04:56:00.079Z,14.67
2022-12-05T04:57:34.513Z,16.13
2022-12-05T04:59:07.908Z,15.47
2022-12-05T05:00:46.123Z,14.70
2022-12-05T05:02:21.033Z,15.93
2022-12-05T05:03:56.638Z,14.30
2022-12-05T05:05:30.365Z,14.57
2022-12-05T05:07:06.629Z,14.97
2022-12-05T05:08:47.950Z,15.40
2022-12-05T05:10:24.091Z,13.33
2022-12-05T05:11:58.808Z,16.73
2022-12-05T05:13:32.203Z,17.37
2022-12-05T05:15:05.820Z,14.13
2022-12-05T05:16:40.720Z,14.37
2022-12-05T05:18:13.069Z,14.30
2022-12-05T05:19:46.434Z,16.43
2022-12-05T05:21:21.321Z,14.97
2022-12-05T05:22:55.572Z,14.93
2022-12-05T05:24:29.031Z,14.60
2022-12-05T05:26:02.402Z,13.73
2022-12-05T05:27:37.101Z,14.47
2022-12-05T05:29:10.834Z,14.97
2022-12-05T05:30:44.189Z,13.70
2022-12-05T05:32:17.556Z,13.50
2022-12-05T05:33:51.278Z,14.97
2022-12-05T05:35:24.642Z,14.57
2022-12-05T05:36:58.003Z,14.27
2022-12-05T05:38:31.390Z,16.63
2022-12-05T05:40:10.616Z,13.87
2022-12-05T05:41:44.874Z,12.60
2022-12-05T05:43:19.591Z,14.20
2022-12-05T05:44:53.033Z,16.27
2022-12-05T05:46:27.709Z,15.00
2022-12-05T05:48:01.173Z,15.30
2022-12-05T05:49:34.532Z,13.37
2022-12-05T05:51:09.019Z,15.80
2022-12-05T05:52:42.381Z,12.83
2022-12-05T05:54:15.782Z,14.07
2022-12-05T05:55:49.157Z,14.47
2022-12-05T05:57:22.514Z,14.77
2022-12-05T05:59:01.874Z,14.10
2022-12-05T06:00:35.277Z,13.23
2022-12-05T06:02:08.627Z,15.47
2022-12-05T06:03:42.517Z,13.03
2022-12-05T06:05:16.005Z,13.77
2022-12-05T06:06:49.367Z,14.27
2022-12-05T06:08:23.001Z,15.60
2022-12-05T06:09:56.723Z,14.57
2022-12-05T06:11:30.505Z,15.30
2022-12-05T06:13:03.867Z,14.93
2022-12-05T06:14:38.707Z,18.00
2022-12-05T06:16:13.148Z,15.83
2022-12-05T06:17:46.628Z,15.20
2022-12-05T06:19:20.022Z,15.33
2022-12-05T06:20:53.970Z,14.27
2022-12-05T06:22:27.351Z,19.13
2022-12-05T06:24:00.694Z,16.10
2022-12-05T06:25:34.052Z,15.57
2022-12-05T06:27:07.644Z,17.20
2022-12-05T06:28:41.109Z,16.07
2022-12-05T06:30:16.334Z,16.57
2022-12-05T06:31:49.699Z,18.23
2022-12-05T06:33:23.221Z,15.27
2022-12-05T06:34:56.569Z,14.87
2022-12-05T06:36:30.292Z,16.57
2022-12-05T06:38:03.799Z,16.10
2022-12-05T06:39:37.194Z,15.33
2022-12-05T06:41:11.471Z,14.90
2022-12-05T06:42:44.837Z,14.27
2022-12-05T06:44:18.653Z,16.43
2022-12-05T06:45:53.479Z,14.53
2022-12-05T06:47:26.922Z,17.90
2022-12-05T06:49:00.611Z,14.73
2022-12-05T06:50:34.028Z,13.87
2022-12-05T06:52:07.405Z,14.57
2022-12-05T06:53:40.812Z,15.67
2022-12-05T06:55:14.203Z,15.40
2022-12-05T06:56:47.569Z,15.60
2022-12-05T06:58:20.895Z,15.07
2022-12-05T07:00:14.906Z,15.63
2022-12-05T07:01:49.162Z,15.73
2022-12-05T07:03:26.051Z,15.50
2022-12-05T07:04:59.435Z,15.50
2022-12-05T07:06:32.807Z,16.07
2022-12-05T07:08:06.469Z,14.90
2022-12-05T07:09:53.788Z,13.93
2022-12-05T07:11:27.236Z,14.73
2022-12-05T07:13:00.598Z,16.27
2022-12-05T07:14:50.127Z,14.37
2022-12-05T07:16:23.885Z,16.30
2022-12-05T07:17:58.665Z,15.50
2022-12-05T07:19:32.362Z,14.60
2022-12-05T07:21:14.544Z,16.97
2022-12-05T07:22:48.201Z,13.43
2022-12-05T07:24:21.562Z,14.70
2022-12-05T07:25:54.413Z,15.17
2022-12-05T07:27:28.440Z,17.00
2022-12-05T07:29:01.952Z,16.73
2022-12-05T07:30:35.316Z,17.00
2022-12-05T07:32:09.740Z,16.70
2022-12-05T07:33:44.785Z,18.07
2022-12-05T07:35:18.240Z,18.40
2022-12-05T07:36:51.647Z,18.23
2022-12-05T07:38:25.003Z,18.60
2022-12-05T07:39:58.670Z,17.47
2022-12-05T07:41:33.390Z,16.90
2022-12-05T07:43:12.402Z,20.23
2022-12-05T07:44:45.846Z,17.07
2022-12-05T07:46:19.314Z,15.03
2022-12-05T07:47:52.817Z,16.43
2022-12-05T07:49:27.750Z,16.60
2022-12-05T07:51:02.506Z,17.87
2022-12-05T07:52:35.882Z,16.27
2022-12-05T07:54:09.444Z,16.57
2022-12-05T07:55:42.819Z,16.17
2022-12-05T07:57:16.210Z,16.27
2022-12-05T07:58:50.613Z,12.90
2022-12-05T08:00:24.020Z,14.33
2022-12-05T08:01:57.527Z,14.23
2022-12-05T08:03:29.947Z,14.27
2022-12-05T08:05:04.675Z,15.20
2022-12-05T08:06:38.062Z,14.57
2022-12-05T08:08:11.554Z,15.43
2022-12-05T08:09:44.940Z,14.77
2022-12-05T08:11:19.874Z,13.40
2022-12-05T08:12:53.011Z,12.70
2022-12-05T08:14:26.164Z,22.30
2022-12-05T08:16:02.593Z,14.87
2022-12-05T08:17:35.676Z,13.70
2022-12-05T08:19:12.907Z,13.47
2022-12-05T08:20:47.344Z,12.47
2022-12-05T08:22:20.359Z,13.63
2022-12-05T08:23:54.211Z,13.47
2022-12-05T08:25:27.756Z,14.97
2022-12-05T08:27:00.771Z,16.77
2022-12-05T08:28:35.079Z,15.10
2022-12-05T08:30:09.052Z,15.37
2022-12-05T08:31:44.406Z,13.33
2022-12-05T08:33:17.456Z,15.77
2022-12-05T08:34:50.554Z,14.43
2022-12-05T08:36:24.993Z,15.17
2022-12-05T08:37:58.087Z,15.33
2022-12-05T08:39:37.991Z,15.90
2022-12-05T08:41:13.401Z,16.53
2022-12-05T08:42:46.475Z,13.17
2022-12-05T08:44:20.045Z,14.13
2022-12-05T08:45:54.093Z,15.80
2022-12-05T08:47:27.605Z,13.27
2022-12-05T08:49:00.859Z,12.87
2022-12-05T08:50:34.044Z,13.77
2022-12-05T08:52:08.467Z,15.43
2022-12-05T08:53:44.676Z,14.07
2022-12-05T08:55:18.096Z,13.33
2022-12-05T08:56:52.600Z,14.03
2022-12-05T08:58:25.667Z,16.10
2022-12-05T08:59:59.970Z,13.53
2022-12-05T09:01:33.661Z,14.83
2022-12-05T09:03:07.160Z,14.63
2022-12-05T09:04:40.642Z,15.13
2022-12-05T09:06:15.288Z,13.93
2022-12-05T09:07:50.126Z,13.93
2022-12-05T09:09:23.531Z,13.50
2022-12-05T09:10:57.036Z,13.50
2022-12-05T09:12:30.417Z,14.50
2022-12-05T09:14:05.142Z,13.00
2022-12-05T09:15:39.973Z,11.27
2022-12-05T09:17:13.418Z,12.63
2022-12-05T09:18:47.229Z,12.30
2022-12-05T09:20:20.872Z,11.03
2022-12-05T09:21:54.246Z,11.47
2022-12-05T09:23:29.008Z,11.97
2022-12-05T09:25:02.366Z,11.77
2022-12-05T09:26:36.013Z,12.70
2022-12-05T09:28:09.424Z,13.37
2022-12-05T09:29:43.187Z,13.20
2022-12-05T09:31:17.717Z,12.30
2022-12-05T09:32:51.214Z,12.20
2022-12-05T09:34:25.971Z,11.73
2022-12-05T09:35:59.624Z,11.47
2022-12-05T09:37:40.463Z,12.47
2022-12-05T09:39:15.232Z,10.80
2022-12-05T09:40:50.231Z,12.53
2022-12-05T09:42:32.809Z,11.20
2022-12-05T09:44:07.805Z,10.70
2022-12-05T09:45:45.686Z,11.87
2022-12-05T09:47:25.750Z,10.83
2022-12-05T09:48:59.797Z,10.77
2022-12-05T09:50:35.460Z,11.00
2022-12-05T09:52:08.873Z,12.63
2022-12-05T09:53:44.071Z,10.63
2022-12-05T09:55:20.851Z,12.53
2022-12-05T09:56:54.331Z,13.17
2022-12-05T09:58:29.306Z,11.67
2022-12-05T10:00:03.709Z,13.00
2022-12-05T10:01:42.052Z,12.30
2022-12-05T10:03:23.837Z,12.60
2022-12-05T10:05:01.812Z,10.77
2022-12-05T10:06:39.069Z,13.47
2022-12-05T10:08:18.519Z,13.33
2022-12-05T10:09:58.621Z,11.27
2022-12-05T10:11:36.441Z,12.93
2022-12-05T10:13:15.971Z,12.60
2022-12-05T10:14:56.096Z,12.27
2022-12-05T10:16:33.005Z,11.47
2022-12-05T10:18:12.453Z,11.80
2022-12-05T10:19:48.132Z,9.73
2022-12-05T10:21:23.694Z,11.20
2022-12-05T10:22:58.693Z,9.37
2022-12-05T10:24:34.101Z,10.73
2022-12-05T10:26:09.453Z,11.73
2022-12-05T10:27:45.354Z,9.83
2022-12-05T10:29:23.777Z,11.40
2022-12-05T10:30:58.491Z,12.17
2022-12-05T10:32:34.007Z,13.27
2022-12-05T10:34:12.353Z,13.90
2022-12-05T10:35:46.036Z,12.40
2022-12-05T10:37:20.229Z,14.17
2022-12-05T10:38:53.664Z,14.60
2022-12-05T10:40:28.196Z,11.87
2022-12-05T10:42:01.585Z,12.30
2022-12-05T10:43:37.159Z,11.77
2022-12-05T10:45:15.780Z,13.63
2022-12-05T10:46:49.917Z,13.87
2022-12-05T10:48:23.810Z,13.33
2022-12-05T10:49:57.836Z,13.80
2022-12-05T10:51:35.803Z,12.97
2022-12-05T10:53:15.742Z,14.77
2022-12-05T10:54:51.100Z,13.03
2022-12-05T10:56:40.791Z,13.23
2022-12-05T10:58:17.543Z,12.80
2022-12-05T10:59:52.701Z,13.00
2022-12-05T11:01:27.650Z,12.43
2022-12-05T11:03:02.565Z,13.43
2022-12-05T11:04:45.213Z,13.73
2022-12-05T11:06:19.830Z,12.00
2022-12-05T11:07:53.461Z,10.77
2022-12-05T11:09:27.884Z,10.40
2022-12-05T11:11:05.422Z,10.70
2022-12-05T11:12:39.392Z,11.77
2022-12-05T11:14:23.825Z,11.03
2022-12-05T11:15:58.588Z,13.00
2022-12-05T11:17:33.892Z,12.27
2022-12-05T11:19:21.659Z,12.03
2022-12-05T11:20:55.089Z,9.93
2022-12-05T11:22:32.674Z,12.00
2022-12-05T11:24:22.661Z,9.47
2022-12-05T11:25:56.849Z,9.60
2022-12-05T11:27:31.082Z,9.50
2022-12-05T11:29:04.981Z,13.47
2022-12-05T11:30:38.345Z,10.10
2022-12-05T11:32:20.098Z,10.97
2022-12-05T11:34:02.740Z,11.57
2022-12-05T11:35:36.153Z,10.57
2022-12-05T11:37:13.813Z,11.23
2022-12-05T11:38:47.425Z,10.63
2022-12-05T11:40:29.522Z,10.43
2022-12-05T11:42:18.523Z,11.60
2022-12-05T11:44:00.351Z,10.40
2022-12-05T11:45:43.453Z,11.97
2022-12-05T11:47:23.416Z,10.33
2022-12-05T11:49:04.897Z,11.90
2022-12-05T11:50:42.472Z,10.73
2022-12-05T11:52:25.416Z,13.50
2022-12-05T11:54:25.952Z,12.37
2022-12-05T11:56:14.972Z,12.30
2022-12-05T11:58:06.260Z,15.10
2022-12-05T11:59:53.915Z,10.57
2022-12-05T12:01:33.534Z,11.33
2022-12-05T12:03:19.849Z,11.83
2022-12-05T12:04:56.511Z,9.07
2022-12-05T12:06:31.873Z,12.20
2022-12-05T12:08:09.053Z,9.87
2022-12-05T12:09:46.914Z,9.50
2022-12-05T12:11:25.388Z,10.43
2022-12-05T12:13:04.900Z,11.27
2022-12-05T12:14:43.243Z,9.80
2022-12-05T12:16:20.572Z,11.10
2022-12-05T12:17:59.035Z,10.87
2022-12-05T12:19:39.751Z,9.90
2022-12-05T12:21:18.404Z,11.77
2022-12-05T12:22:59.402Z,10.63
2022-12-05T12:24:37.122Z,10.33
2022-12-05T12:26:14.026Z,10.10
2022-12-05T12:27:52.502Z,10.00
2022-12-05T12:29:33.447Z,11.37
2022-12-05T12:31:18.421Z,11.87
2022-12-05T12:32:58.366Z,10.27
2022-12-05T12:34:43.733Z,12.17
2022-12-05T12:36:20.040Z,10.67
2022-12-05T12:38:00.283Z,10.83
2022-12-05T12:39:40.596Z,11.60
2022-12-05T12:41:18.758Z,11.37
2022-12-05T12:42:58.076Z,11.40
2022-12-05T12:44:40.655Z,10.47
2022-12-05T12:46:18.065Z,10.50
2022-12-05T12:47:56.334Z,12.43
2022-12-05T12:49:41.798Z,12.10
2022-12-05T12:51:15.794Z,10.40
2022-12-05T12:52:56.379Z,11.73
2022-12-05T12:56:42.831Z,13.33
2022-12-05T12:58:23.679Z,12.50
2022-12-05T13:00:03.946Z,11.57
2022-12-05T13:01:39.529Z,11.03
2022-12-05T13:03:15.625Z,10.03
2022-12-05T13:04:54.026Z,12.80
2022-12-05T13:06:30.900Z,12.07
2022-12-05T13:08:07.026Z,12.30
2022-12-05T13:09:44.247Z,12.43
2022-12-05T13:11:21.868Z,12.57
2022-12-05T13:12:57.052Z,10.03
2022-12-05T13:14:31.286Z,11.20
2022-12-05T13:16:07.808Z,13.93
2022-12-05T13:17:43.053Z,13.77
2022-12-05T13:19:23.701Z,11.47
2022-12-05T13:20:59.488Z,10.63
2022-12-05T13:22:33.094Z,11.10
2022-12-05T13:24:06.758Z,11.40
2022-12-05T13:25:41.533Z,12.67
2022-12-05T13:27:18.342Z,11.77
2022-12-05T13:28:53.099Z,10.10
2022-12-05T13:30:28.110Z,10.30
2022-12-05T13:32:02.570Z,10.17
2022-12-05T13:33:37.072Z,12.27
2022-12-05T13:35:11.315Z,13.37
2022-12-05T13:37:03.911Z,13.50
2022-12-05T13:38:55.978Z,12.77
2022-12-05T13:40:48.504Z,12.20
2022-12-05T13:42:24.346Z,16.47
2022-12-05T13:44:06.260Z,16.30
2022-12-05T13:45:41.154Z,15.70
2022-12-05T13:47:26.665Z,15.07
2022-12-05T13:49:05.143Z,17.77
2022-12-05T13:50:44.031Z,17.77
2022-12-05T13:52:21.780Z,19.87
2022-12-05T13:54:01.015Z,18.63
2022-12-05T13:55:36.765Z,16.63
2022-12-05T13:57:30.469Z,21.00
2022-12-05T13:59:03.913Z,18.97
2022-12-05T14:00:38.205Z,17.77
2022-12-05T14:02:26.440Z,19.37
2022-12-05T14:04:00.952Z,18.37
2022-12-05T14:05:37.726Z,18.60
2022-12-05T14:07:11.758Z,17.37
2022-12-05T14:08:55.166Z,19.30
2022-12-05T14:11:02.320Z,20.57
2022-12-05T14:12:53.908Z,19.50
2022-12-05T14:14:42.128Z,21.13
2022-12-05T14:16:49.497Z,21.07
2022-12-05T14:18:27.984Z,18.30
2022-12-05T14:20:18.811Z,20.43
2022-12-05T14:21:59.352Z,19.70
2022-12-05T14:23:45.372Z,21.87
2022-12-05T14:25:31.997Z,19.93
2022-12-05T14:27:08.794Z,21.40
2022-12-05T14:28:49.048Z,21.50
2022-12-05T14:30:24.416Z,22.03
2022-12-05T14:32:05.248Z,20.70
2022-12-05T14:33:40.207Z,20.20
2022-12-05T14:35:14.631Z,22.50
2022-12-05T14:36:59.183Z,22.63
2022-12-05T14:38:33.837Z,18.67
2022-12-05T14:40:20.246Z,18.33
2022-12-05T14:41:58.273Z,21.07
2022-12-05T14:43:33.133Z,18.70
2022-12-05T14:45:24.389Z,17.33
2022-12-05T14:47:02.901Z,18.00
2022-12-05T14:48:40.169Z,21.23
2022-12-05T14:50:35.477Z,18.83
2022-12-05T14:52:11.936Z,16.03
2022-12-05T14:53:46.334Z,19.93
2022-12-05T14:55:25.100Z,17.30
2022-12-05T14:57:04.693Z,20.00
2022-12-05T14:58:41.373Z,17.90
2022-12-05T15:00:20.136Z,21.43
2022-12-05T15:01:55.896Z,24.37
2022-12-05T15:03:32.457Z,22.50
2022-12-05T15:05:19.782Z,24.13
2022-12-05T15:06:56.631Z,24.50
2022-12-05T15:08:32.833Z,22.57
2022-12-05T15:10:08.227Z,19.73
2022-12-05T15:11:41.628Z,19.17
2022-12-05T15:13:17.651Z,18.97
2022-12-05T15:14:55.313Z,20.87
2022-12-05T15:16:30.332Z,19.60
2022-12-05T15:18:10.476Z,21.13
2022-12-05T15:19:46.533Z,19.13
2022-12-05T15:21:23.446Z,20.43
2022-12-05T15:22:58.165Z,18.77
2022-12-05T15:24:38.661Z,18.47
2022-12-05T15:26:45.480Z,19.27
2022-12-05T15:28:19.939Z,21.10
2022-12-05T15:29:56.621Z,26.30
2022-12-05T15:31:31.335Z,22.97
2022-12-05T15:33:04.756Z,24.63
2022-12-05T15:34:39.791Z,21.43
2022-12-05T15:36:13.418Z,25.63
2022-12-05T15:37:49.938Z,24.33
2022-12-05T15:39:25.856Z,24.93
2022-12-05T15:40:59.225Z,26.47
2022-12-05T15:42:33.762Z,26.33
2022-12-05T15:44:07.200Z,25.63
2022-12-05T15:45:40.657Z,23.80
2022-12-05T15:47:20.775Z,29.53
2022-12-05T15:48:54.458Z,27.97
2022-12-05T15:50:31.178Z,29.20
2022-12-05T15:52:07.734Z,27.67
2022-12-05T15:53:43.352Z,29.97
2022-12-05T15:55:20.723Z,28.70
2022-12-05T15:56:56.342Z,27.83
2022-12-05T15:58:31.531Z,25.17
2022-12-05T16:00:06.316Z,27.30
2022-12-05T16:01:47.294Z,24.00
2022-12-05T16:03:23.082Z,26.67
2022-12-05T16:04:59.445Z,23.97
2022-12-05T16:06:35.740Z,25.80
2022-12-05T16:08:09.785Z,24.67
2022-12-05T16:09:43.703Z,26.83
2022-12-05T16:11:19.017Z,26.87
2022-12-05T16:12:53.161Z,26.07
2022-12-05T16:16:23.195Z,26.67
2022-12-05T16:17:57.786Z,24.97
2022-12-05T16:19:31.607Z,26.10
2022-12-05T16:21:04.960Z,23.53
2022-12-05T16:22:38.332Z,24.60
2022-12-05T16:24:17.215Z,24.50
2022-12-05T16:25:52.090Z,24.40
2022-12-05T16:27:27.559Z,21.87
2022-12-05T16:29:01.420Z,24.37
2022-12-05T16:30:35.093Z,23.00
2022-12-05T16:32:16.127Z,25.20
2022-12-05T16:33:49.485Z,24.17
2022-12-05T16:35:30.861Z,24.73
2022-12-05T16:37:06.265Z,22.80
2022-12-05T16:38:40.834Z,25.10
2022-12-05T16:40:22.466Z,23.73
2022-12-05T16:41:56.473Z,22.57
2022-12-05T16:43:44.680Z,22.70
2022-12-05T16:45:38.187Z,24.10
2022-12-05T16:47:16.696Z,22.90
2022-12-05T16:49:10.119Z,24.57
2022-12-05T16:50:43.523Z,24.00
2022-12-05T16:52:16.955Z,23.00
2022-12-05T16:53:51.280Z,23.07
2022-12-05T16:55:24.677Z,25.27
2022-12-05T16:56:58.179Z,23.87
2022-12-05T16:58:33.015Z,22.23
2022-12-05T17:00:06.871Z,19.03
2022-12-05T17:01:40.504Z,20.93
2022-12-05T17:03:33.301Z,19.37
2022-12-05T17:05:08.674Z,21.93
2022-12-05T17:06:42.885Z,23.83
2022-12-05T17:08:16.303Z,22.90
2022-12-05T17:09:49.770Z,23.30
2022-12-05T17:11:25.176Z,23.43
2022-12-05T17:13:00.057Z,24.70
2022-12-05T17:14:34.772Z,21.20
2022-12-05T17:16:08.637Z,22.93
2022-12-05T17:17:42.017Z,21.53
2022-12-05T17:19:15.665Z,20.13
2022-12-05T17:20:50.971Z,19.93
2022-12-05T17:22:26.986Z,21.00
2022-12-05T17:24:00.398Z,19.83
2022-12-05T17:25:36.306Z,22.33
2022-12-05T17:27:11.125Z,20.33
2022-12-05T17:28:44.548Z,20.67
2022-12-05T17:30:19.538Z,20.50
2022-12-05T17:31:53.179Z,21.67
2022-12-05T17:33:26.611Z,18.57
2022-12-05T17:35:05.187Z,19.67
2022-12-05T17:36:40.085Z,27.80
2022-12-05T17:38:14.233Z,19.30
2022-12-05T17:39:47.593Z,20.30
2022-12-05T17:41:21.718Z,19.27
2022-12-05T17:42:55.093Z,18.37
2022-12-05T17:44:28.460Z,16.87
2022-12-05T17:46:03.437Z,18.83
2022-12-05T17:47:36.815Z,17.83
2022-12-05T17:49:11.286Z,16.40
2022-12-05T17:50:46.678Z,17.67
2022-12-05T17:52:21.851Z,18.30
2022-12-05T17:53:55.825Z,16.17
2022-12-05T17:55:30.869Z,15.60
2022-12-05T17:57:04.234Z,17.37
2022-12-05T17:58:37.653Z,17.73
2022-12-05T18:00:11.864Z,18.03
2022-12-05T18:01:46.632Z,18.33
2022-12-05T18:03:20.437Z,18.90
2022-12-05T18:04:53.852Z,18.17
2022-12-05T18:06:28.811Z,18.20
2022-12-05T18:08:02.221Z,17.63
2022-12-05T18:09:35.793Z,19.23
2022-12-05T18:11:09.388Z,18.83
2022-12-05T18:12:42.767Z,17.80
2022-12-05T18:14:16.280Z,18.30
2022-12-05T18:15:49.965Z,18.00
2022-12-05T18:17:24.943Z,19.33
2022-12-05T18:18:58.280Z,20.47
2022-12-05T18:20:31.764Z,17.47
2022-12-05T18:22:05.223Z,16.77
2022-12-05T18:23:39.041Z,16.03
2022-12-05T18:25:12.740Z,18.37
2022-12-05T18:26:47.000Z,16.40
2022-12-05T18:28:20.925Z,17.37
2022-12-05T18:29:54.327Z,20.40
2022-12-05T18:31:27.834Z,21.23
2022-12-05T18:33:02.642Z,20.97
2022-12-05T18:34:36.063Z,23.30
2022-12-05T18:36:10.220Z,20.60
2022-12-05T18:37:43.685Z,21.13
2022-12-05T18:39:17.231Z,21.87
2022-12-05T18:40:50.618Z,21.13
2022-12-05T18:42:23.999Z,21.60
2022-12-05T18:43:57.432Z,21.13
2022-12-05T18:45:31.216Z,23.17
2022-12-05T18:47:04.719Z,20.43
2022-12-05T18:48:42.644Z,21.40
2022-12-05T18:50:19.441Z,20.87
2022-12-05T18:51:53.562Z,21.33
2022-12-05T18:53:27.002Z,20.20
2022-12-05T18:55:16.157Z,19.63
2022-12-05T18:56:52.715Z,18.17
2022-12-05T18:58:26.294Z,18.37
2022-12-05T19:00:00.587Z,17.47
2022-12-05T19:01:34.855Z,17.90
2022-12-05T19:03:09.561Z,17.70
2022-12-05T19:04:44.556Z,19.20
2022-12-05T19:06:18.666Z,18.50
2022-12-05T19:07:54.965Z,19.73
2022-12-05T19:09:29.400Z,20.63
2022-12-05T19:11:05.027Z,21.40
2022-12-05T19:12:38.878Z,18.83
2022-12-05T19:14:12.742Z,20.97
2022-12-05T19:15:46.100Z,19.93
2022-12-05T19:17:19.461Z,20.83
2022-12-05T19:18:55.941Z,19.80
2022-12-05T19:20:30.682Z,19.03
2022-12-05T19:22:04.217Z,20.10
2022-12-05T19:23:37.626Z,18.80
2022-12-05T19:25:11.291Z,20.00
2022-12-05T19:26:47.737Z,19.63
2022-12-05T19:28:21.106Z,20.07
2022-12-05T19:29:54.476Z,20.57
2022-12-05T19:31:28.667Z,19.83
2022-12-05T19:33:02.631Z,20.40
2022-12-05T19:34:36.048Z,19.83
2022-12-05T19:36:12.326Z,19.87
2022-12-05T19:37:45.688Z,18.27
2022-12-05T19:39:19.883Z,18.63
2022-12-05T19:40:57.070Z,21.23
2022-12-05T19:42:31.094Z,19.67
2022-12-05T19:44:04.793Z,18.63
2022-12-05T19:45:39.766Z,20.47
2022-12-05T19:47:13.181Z,22.07
2022-12-05T19:48:47.579Z,25.33
2022-12-05T19:50:20.965Z,25.47
2022-12-05T19:51:55.699Z,24.63
2022-12-05T19:53:30.127Z,21.47
2022-12-05T19:55:03.756Z,20.10
2022-12-05T19:56:37.485Z,20.13
2022-12-05T19:58:10.873Z,23.50
2022-12-05T19:59:44.229Z,27.20
2022-12-05T20:01:18.574Z,22.53
2022-12-05T20:02:52.016Z,22.63
2022-12-05T20:04:25.474Z,22.57
2022-12-05T20:05:59.403Z,21.50
2022-12-05T20:07:34.252Z,19.93
2022-12-05T20:09:08.533Z,18.87
2022-12-05T20:10:41.969Z,17.87
2022-12-05T20:12:15.323Z,16.13
2022-12-05T20:13:49.004Z,14.10
2022-12-05T20:15:22.452Z,16.93
2022-12-05T20:16:56.145Z,15.50
2022-12-05T20:18:29.599Z,16.37
2022-12-05T20:20:03.049Z,15.60
2022-12-05T20:21:37.446Z,14.93
2022-12-05T20:23:12.371Z,17.77
2022-12-05T20:24:45.768Z,18.17
2022-12-05T20:26:20.157Z,19.20
2022-12-05T20:27:53.520Z,34.93
2022-12-05T20:29:26.876Z,31.20
2022-12-05T20:31:04.795Z,28.80
2022-12-05T20:32:38.206Z,23.67
2022-12-05T20:34:13.403Z,22.10
2022-12-05T20:35:46.862Z,21.13
2022-12-05T20:37:19.982Z,17.97
2022-12-05T20:38:58.292Z,17.67
2022-12-05T20:40:31.397Z,20.03
2022-12-05T20:42:04.651Z,19.73
2022-12-05T20:43:38.022Z,20.53